sensor_id;sensor_type;location;lat;lon;timestamp;P1;durP1;ratioP1;P2;durP2;ratioP2
9392;SDS011;4736;52.508;13.422;2022-10-16T00:01:44;4.70;;;4.50;;
9392;SDS011;4736;52.508;13.422;2022-10-16T00:04:47;4.60;;;4.40;;
9392;SDS011;4736;52.508;13.422;2022-10-16T00:07:50;4.47;;;4.27;;
9392;SDS011;4736;52.508;13.422;2022-10-16T00:10:52;3.73;;;3.63;;
9392;SDS011;4736;52.508;13.422;2022-10-16T00:14:03;4.27;;;4.17;;
9392;SDS011;4736;52.508;13.422;2022-10-16T00:17:07;4.80;;;4.70;;
9392;SDS011;4736;52.508;13.422;2022-10-16T00:20:10;4.67;;;4.47;;
9392;SDS011;4736;52.508;13.422;2022-10-16T00:23:12;4.13;;;4.03;;
9392;SDS011;4736;52.508;13.422;2022-10-16T00:26:16;4.13;;;4.03;;
9392;SDS011;4736;52.508;13.422;2022-10-16T00:29:21;3.93;;;3.83;;
9392;SDS011;4736;52.508;13.422;2022-10-16T00:32:23;3.93;;;3.70;;
9392;SDS011;4736;52.508;13.422;2022-10-16T00:35:27;3.90;;;3.73;;
9392;SDS011;4736;52.508;13.422;2022-10-16T00:38:30;4.00;;;3.70;;
9392;SDS011;4736;52.508;13.422;2022-10-16T00:41:33;3.53;;;3.30;;
9392;SDS011;4736;52.508;13.422;2022-10-16T00:44:45;3.10;;;3.10;;
9392;SDS011;4736;52.508;13.422;2022-10-16T00:47:51;3.43;;;3.27;;
9392;SDS011;4736;52.508;13.422;2022-10-16T00:50:55;3.27;;;3.20;;
9392;SDS011;4736;52.508;13.422;2022-10-16T00:54:00;3.30;;;3.20;;
9392;SDS011;4736;52.508;13.422;2022-10-16T00:57:06;3.30;;;3.30;;
9392;SDS011;4736;52.508;13.422;2022-10-16T01:00:13;4.47;;;3.30;;
9392;SDS011;4736;52.508;13.422;2022-10-16T01:03:23;4.33;;;3.23;;
9392;SDS011;4736;52.508;13.422;2022-10-16T01:06:31;3.17;;;3.17;;
9392;SDS011;4736;52.508;13.422;2022-10-16T01:09:46;3.10;;;3.00;;
9392;SDS011;4736;52.508;13.422;2022-10-16T01:12:57;3.23;;;3.03;;
9392;SDS011;4736;52.508;13.422;2022-10-16T01:16:07;3.50;;;3.40;;
9392;SDS011;4736;52.508;13.422;2022-10-16T01:19:16;2.97;;;2.80;;
9392;SDS011;4736;52.508;13.422;2022-10-16T01:22:31;3.50;;;3.30;;
9392;SDS011;4736;52.508;13.422;2022-10-16T01:25:47;2.80;;;2.80;;
9392;SDS011;4736;52.508;13.422;2022-10-16T01:29:02;3.03;;;3.03;;
9392;SDS011;4736;52.508;13.422;2022-10-16T01:32:10;2.97;;;2.87;;
9392;SDS011;4736;52.508;13.422;2022-10-16T01:35:18;2.77;;;2.77;;
9392;SDS011;4736;52.508;13.422;2022-10-16T01:38:25;2.90;;;2.90;;
9392;SDS011;4736;52.508;13.422;2022-10-16T01:41:33;3.23;;;3.03;;
9392;SDS011;4736;52.508;13.422;2022-10-16T01:44:41;3.37;;;3.27;;
9392;SDS011;4736;52.508;13.422;2022-10-16T01:47:47;2.50;;;2.50;;
9392;SDS011;4736;52.508;13.422;2022-10-16T01:50:55;3.00;;;2.90;;
9392;SDS011;4736;52.508;13.422;2022-10-16T01:54:01;2.80;;;2.80;;
9392;SDS011;4736;52.508;13.422;2022-10-16T01:57:06;3.00;;;2.90;;
9392;SDS011;4736;52.508;13.422;2022-10-16T02:00:12;3.33;;;3.10;;
9392;SDS011;4736;52.508;13.422;2022-10-16T02:03:17;2.73;;;2.73;;
9392;SDS011;4736;52.508;13.422;2022-10-16T02:06:21;3.27;;;3.07;;
9392;SDS011;4736;52.508;13.422;2022-10-16T02:09:26;3.00;;;2.90;;
9392;SDS011;4736;52.508;13.422;2022-10-16T02:12:30;2.50;;;2.33;;
9392;SDS011;4736;52.508;13.422;2022-10-16T02:15:36;2.60;;;2.60;;
9392;SDS011;4736;52.508;13.422;2022-10-16T02:18:39;2.50;;;2.40;;
9392;SDS011;4736;52.508;13.422;2022-10-16T02:21:43;2.87;;;2.87;;
9392;SDS011;4736;52.508;13.422;2022-10-16T02:24:50;2.93;;;2.87;;
9392;SDS011;4736;52.508;13.422;2022-10-16T02:27:57;3.03;;;3.03;;
9392;SDS011;4736;52.508;13.422;2022-10-16T02:31:06;2.70;;;2.70;;
9392;SDS011;4736;52.508;13.422;2022-10-16T02:34:10;2.93;;;2.93;;
9392;SDS011;4736;52.508;13.422;2022-10-16T02:37:15;3.10;;;2.87;;
9392;SDS011;4736;52.508;13.422;2022-10-16T02:40:19;3.10;;;3.00;;
9392;SDS011;4736;52.508;13.422;2022-10-16T02:43:25;3.17;;;2.83;;
9392;SDS011;4736;52.508;13.422;2022-10-16T02:46:29;2.90;;;2.80;;
9392;SDS011;4736;52.508;13.422;2022-10-16T02:49:32;3.17;;;3.10;;
9392;SDS011;4736;52.508;13.422;2022-10-16T02:52:35;2.80;;;2.80;;
9392;SDS011;4736;52.508;13.422;2022-10-16T02:55:38;2.93;;;2.83;;
9392;SDS011;4736;52.508;13.422;2022-10-16T02:58:41;2.70;;;2.60;;
9392;SDS011;4736;52.508;13.422;2022-10-16T03:01:45;3.10;;;3.00;;
9392;SDS011;4736;52.508;13.422;2022-10-16T03:04:48;3.03;;;2.90;;
9392;SDS011;4736;52.508;13.422;2022-10-16T03:07:51;3.23;;;3.07;;
9392;SDS011;4736;52.508;13.422;2022-10-16T03:10:54;3.10;;;3.00;;
9392;SDS011;4736;52.508;13.422;2022-10-16T03:13:57;2.90;;;2.90;;
9392;SDS011;4736;52.508;13.422;2022-10-16T03:17:01;3.10;;;3.10;;
9392;SDS011;4736;52.508;13.422;2022-10-16T03:20:04;3.30;;;3.10;;
9392;SDS011;4736;52.508;13.422;2022-10-16T03:23:08;2.93;;;2.83;;
9392;SDS011;4736;52.508;13.422;2022-10-16T03:26:11;3.30;;;3.30;;
9392;SDS011;4736;52.508;13.422;2022-10-16T03:33:07;3.03;;;2.93;;
9392;SDS011;4736;52.508;13.422;2022-10-16T03:36:10;2.90;;;2.80;;
9392;SDS011;4736;52.508;13.422;2022-10-16T03:39:13;3.10;;;3.00;;
9392;SDS011;4736;52.508;13.422;2022-10-16T03:42:15;3.17;;;2.87;;
9392;SDS011;4736;52.508;13.422;2022-10-16T03:45:18;2.60;;;2.60;;
9392;SDS011;4736;52.508;13.422;2022-10-16T03:48:22;2.83;;;2.73;;
9392;SDS011;4736;52.508;13.422;2022-10-16T03:51:25;2.97;;;2.97;;
9392;SDS011;4736;52.508;13.422;2022-10-16T03:54:28;2.80;;;2.80;;
9392;SDS011;4736;52.508;13.422;2022-10-16T03:57:31;2.90;;;2.90;;
9392;SDS011;4736;52.508;13.422;2022-10-16T04:00:34;2.60;;;2.60;;
9392;SDS011;4736;52.508;13.422;2022-10-16T04:03:38;3.30;;;3.10;;
9392;SDS011;4736;52.508;13.422;2022-10-16T04:06:41;2.90;;;2.80;;
9392;SDS011;4736;52.508;13.422;2022-10-16T04:09:43;2.90;;;2.80;;
9392;SDS011;4736;52.508;13.422;2022-10-16T04:12:46;2.57;;;2.57;;
9392;SDS011;4736;52.508;13.422;2022-10-16T04:15:49;2.60;;;2.60;;
9392;SDS011;4736;52.508;13.422;2022-10-16T04:18:53;3.20;;;3.00;;
9392;SDS011;4736;52.508;13.422;2022-10-16T04:21:56;2.87;;;2.80;;
9392;SDS011;4736;52.508;13.422;2022-10-16T04:24:59;3.50;;;3.30;;
9392;SDS011;4736;52.508;13.422;2022-10-16T04:28:02;3.60;;;3.50;;
9392;SDS011;4736;52.508;13.422;2022-10-16T04:31:05;2.90;;;2.90;;
9392;SDS011;4736;52.508;13.422;2022-10-16T04:34:10;3.53;;;3.33;;
9392;SDS011;4736;52.508;13.422;2022-10-16T04:37:12;3.13;;;3.10;;
9392;SDS011;4736;52.508;13.422;2022-10-16T04:40:15;3.20;;;3.20;;
9392;SDS011;4736;52.508;13.422;2022-10-16T04:43:18;2.90;;;2.90;;
9392;SDS011;4736;52.508;13.422;2022-10-16T04:46:21;3.40;;;3.30;;
9392;SDS011;4736;52.508;13.422;2022-10-16T04:49:26;2.87;;;2.87;;
9392;SDS011;4736;52.508;13.422;2022-10-16T04:52:28;3.40;;;3.23;;
9392;SDS011;4736;52.508;13.422;2022-10-16T04:55:32;3.13;;;3.03;;
9392;SDS011;4736;52.508;13.422;2022-10-16T04:58:36;4.03;;;3.33;;
9392;SDS011;4736;52.508;13.422;2022-10-16T05:01:38;3.17;;;3.13;;
9392;SDS011;4736;52.508;13.422;2022-10-16T05:04:43;2.73;;;2.73;;
9392;SDS011;4736;52.508;13.422;2022-10-16T05:07:46;2.90;;;2.90;;
9392;SDS011;4736;52.508;13.422;2022-10-16T05:10:49;3.27;;;3.20;;
9392;SDS011;4736;52.508;13.422;2022-10-16T05:13:51;2.77;;;2.77;;
9392;SDS011;4736;52.508;13.422;2022-10-16T05:16:56;3.10;;;3.00;;
9392;SDS011;4736;52.508;13.422;2022-10-16T05:20:00;4.13;;;4.00;;
9392;SDS011;4736;52.508;13.422;2022-10-16T05:23:03;3.30;;;3.30;;
9392;SDS011;4736;52.508;13.422;2022-10-16T05:26:06;3.40;;;3.23;;
9392;SDS011;4736;52.508;13.422;2022-10-16T05:29:08;3.70;;;3.50;;
9392;SDS011;4736;52.508;13.422;2022-10-16T05:32:11;3.87;;;3.73;;
9392;SDS011;4736;52.508;13.422;2022-10-16T05:35:16;3.80;;;3.70;;
9392;SDS011;4736;52.508;13.422;2022-10-16T05:38:19;3.77;;;3.67;;
9392;SDS011;4736;52.508;13.422;2022-10-16T05:41:22;3.50;;;3.40;;
9392;SDS011;4736;52.508;13.422;2022-10-16T05:44:27;3.97;;;3.77;;
9392;SDS011;4736;52.508;13.422;2022-10-16T05:47:30;3.70;;;3.60;;
9392;SDS011;4736;52.508;13.422;2022-10-16T05:50:34;3.63;;;3.53;;
9392;SDS011;4736;52.508;13.422;2022-10-16T05:53:37;3.70;;;3.60;;
9392;SDS011;4736;52.508;13.422;2022-10-16T05:56:41;3.80;;;3.70;;
9392;SDS011;4736;52.508;13.422;2022-10-16T05:59:44;3.37;;;3.37;;
9392;SDS011;4736;52.508;13.422;2022-10-16T06:02:47;3.73;;;3.63;;
9392;SDS011;4736;52.508;13.422;2022-10-16T06:05:51;4.00;;;3.80;;
9392;SDS011;4736;52.508;13.422;2022-10-16T06:08:54;3.70;;;3.70;;
9392;SDS011;4736;52.508;13.422;2022-10-16T06:11:57;3.77;;;3.60;;
9392;SDS011;4736;52.508;13.422;2022-10-16T06:15:00;3.70;;;3.60;;
9392;SDS011;4736;52.508;13.422;2022-10-16T06:18:04;3.60;;;3.60;;
9392;SDS011;4736;52.508;13.422;2022-10-16T06:21:09;3.80;;;3.60;;
9392;SDS011;4736;52.508;13.422;2022-10-16T06:24:12;3.70;;;3.60;;
9392;SDS011;4736;52.508;13.422;2022-10-16T06:27:15;3.60;;;3.50;;
9392;SDS011;4736;52.508;13.422;2022-10-16T06:30:18;3.70;;;3.60;;
9392;SDS011;4736;52.508;13.422;2022-10-16T06:33:21;4.30;;;4.10;;
9392;SDS011;4736;52.508;13.422;2022-10-16T06:36:25;4.50;;;4.30;;
9392;SDS011;4736;52.508;13.422;2022-10-16T06:39:28;3.80;;;3.60;;
9392;SDS011;4736;52.508;13.422;2022-10-16T06:42:31;3.80;;;3.70;;
9392;SDS011;4736;52.508;13.422;2022-10-16T06:45:34;3.50;;;3.40;;
9392;SDS011;4736;52.508;13.422;2022-10-16T06:48:37;3.70;;;3.60;;
9392;SDS011;4736;52.508;13.422;2022-10-16T06:51:41;3.33;;;3.23;;
9392;SDS011;4736;52.508;13.422;2022-10-16T06:54:44;4.07;;;3.87;;
9392;SDS011;4736;52.508;13.422;2022-10-16T06:57:47;4.07;;;3.73;;
9392;SDS011;4736;52.508;13.422;2022-10-16T07:00:55;4.20;;;4.00;;
9392;SDS011;4736;52.508;13.422;2022-10-16T07:03:58;3.73;;;3.63;;
9392;SDS011;4736;52.508;13.422;2022-10-16T07:07:03;5.20;;;5.00;;
9392;SDS011;4736;52.508;13.422;2022-10-16T07:10:09;5.80;;;5.30;;
9392;SDS011;4736;52.508;13.422;2022-10-16T07:13:12;5.07;;;4.87;;
9392;SDS011;4736;52.508;13.422;2022-10-16T07:16:16;6.30;;;5.97;;
9392;SDS011;4736;52.508;13.422;2022-10-16T07:19:20;4.93;;;4.73;;
9392;SDS011;4736;52.508;13.422;2022-10-16T07:22:24;5.50;;;5.30;;
9392;SDS011;4736;52.508;13.422;2022-10-16T07:25:27;5.50;;;5.20;;
9392;SDS011;4736;52.508;13.422;2022-10-16T07:28:30;4.00;;;3.90;;
9392;SDS011;4736;52.508;13.422;2022-10-16T07:31:34;3.43;;;3.33;;
9392;SDS011;4736;52.508;13.422;2022-10-16T07:34:39;6.47;;;5.97;;
9392;SDS011;4736;52.508;13.422;2022-10-16T07:37:45;4.07;;;3.83;;
9392;SDS011;4736;52.508;13.422;2022-10-16T07:40:48;3.17;;;3.07;;
9392;SDS011;4736;52.508;13.422;2022-10-16T07:43:58;3.20;;;3.10;;
9392;SDS011;4736;52.508;13.422;2022-10-16T07:47:01;2.87;;;2.77;;
9392;SDS011;4736;52.508;13.422;2022-10-16T07:50:04;2.70;;;2.60;;
9392;SDS011;4736;52.508;13.422;2022-10-16T07:53:09;3.00;;;2.80;;
9392;SDS011;4736;52.508;13.422;2022-10-16T07:56:12;5.50;;;4.40;;
9392;SDS011;4736;52.508;13.422;2022-10-16T07:59:15;2.87;;;2.87;;
9392;SDS011;4736;52.508;13.422;2022-10-16T08:02:18;4.73;;;3.07;;
9392;SDS011;4736;52.508;13.422;2022-10-16T08:05:21;2.83;;;2.77;;
9392;SDS011;4736;52.508;13.422;2022-10-16T08:08:25;2.63;;;2.63;;
9392;SDS011;4736;52.508;13.422;2022-10-16T08:11:28;4.60;;;3.10;;
9392;SDS011;4736;52.508;13.422;2022-10-16T08:14:31;2.63;;;2.63;;
9392;SDS011;4736;52.508;13.422;2022-10-16T08:17:34;3.00;;;2.73;;
9392;SDS011;4736;52.508;13.422;2022-10-16T08:20:37;2.80;;;2.70;;
9392;SDS011;4736;52.508;13.422;2022-10-16T08:23:42;3.70;;;3.53;;
9392;SDS011;4736;52.508;13.422;2022-10-16T08:26:45;2.97;;;2.87;;
9392;SDS011;4736;52.508;13.422;2022-10-16T08:29:48;2.40;;;2.40;;
9392;SDS011;4736;52.508;13.422;2022-10-16T08:32:51;2.70;;;2.60;;
9392;SDS011;4736;52.508;13.422;2022-10-16T08:35:54;2.87;;;2.77;;
9392;SDS011;4736;52.508;13.422;2022-10-16T08:38:58;3.00;;;2.90;;
9392;SDS011;4736;52.508;13.422;2022-10-16T08:42:11;6.50;;;4.37;;
9392;SDS011;4736;52.508;13.422;2022-10-16T08:45:28;4.90;;;4.73;;
9392;SDS011;4736;52.508;13.422;2022-10-16T08:48:40;2.87;;;2.80;;
9392;SDS011;4736;52.508;13.422;2022-10-16T08:51:47;2.90;;;2.90;;
9392;SDS011;4736;52.508;13.422;2022-10-16T08:54:53;2.80;;;2.70;;
9392;SDS011;4736;52.508;13.422;2022-10-16T08:57:58;3.53;;;2.77;;
9392;SDS011;4736;52.508;13.422;2022-10-16T09:01:02;2.97;;;2.60;;
9392;SDS011;4736;52.508;13.422;2022-10-16T09:07:59;2.40;;;2.20;;
9392;SDS011;4736;52.508;13.422;2022-10-16T09:11:16;3.97;;;3.83;;
9392;SDS011;4736;52.508;13.422;2022-10-16T09:14:34;2.47;;;2.37;;
9392;SDS011;4736;52.508;13.422;2022-10-16T09:17:46;2.30;;;2.30;;
9392;SDS011;4736;52.508;13.422;2022-10-16T09:20:57;2.40;;;2.40;;
9392;SDS011;4736;52.508;13.422;2022-10-16T09:24:07;2.70;;;2.50;;
9392;SDS011;4736;52.508;13.422;2022-10-16T09:27:15;6.90;;;2.47;;
9392;SDS011;4736;52.508;13.422;2022-10-16T09:30:19;2.47;;;2.47;;
9392;SDS011;4736;52.508;13.422;2022-10-16T09:33:25;2.80;;;2.20;;
9392;SDS011;4736;52.508;13.422;2022-10-16T09:36:32;2.30;;;2.30;;
9392;SDS011;4736;52.508;13.422;2022-10-16T09:39:43;2.50;;;2.40;;
9392;SDS011;4736;52.508;13.422;2022-10-16T09:42:48;2.40;;;2.40;;
9392;SDS011;4736;52.508;13.422;2022-10-16T09:45:55;2.60;;;2.60;;
9392;SDS011;4736;52.508;13.422;2022-10-16T09:49:00;2.40;;;2.40;;
9392;SDS011;4736;52.508;13.422;2022-10-16T09:52:06;2.60;;;2.50;;
9392;SDS011;4736;52.508;13.422;2022-10-16T09:55:14;2.53;;;2.40;;
9392;SDS011;4736;52.508;13.422;2022-10-16T09:58:22;2.60;;;2.40;;
9392;SDS011;4736;52.508;13.422;2022-10-16T10:01:27;2.70;;;2.50;;
9392;SDS011;4736;52.508;13.422;2022-10-16T10:04:37;2.63;;;2.50;;
9392;SDS011;4736;52.508;13.422;2022-10-16T10:07:43;2.10;;;2.07;;
9392;SDS011;4736;52.508;13.422;2022-10-16T10:10:47;2.10;;;2.00;;
9392;SDS011;4736;52.508;13.422;2022-10-16T10:13:52;2.00;;;1.90;;
9392;SDS011;4736;52.508;13.422;2022-10-16T10:17:11;2.43;;;2.33;;
9392;SDS011;4736;52.508;13.422;2022-10-16T10:20:22;2.40;;;2.27;;
9392;SDS011;4736;52.508;13.422;2022-10-16T10:23:27;2.37;;;2.13;;
9392;SDS011;4736;52.508;13.422;2022-10-16T10:26:31;1.87;;;1.87;;
9392;SDS011;4736;52.508;13.422;2022-10-16T10:29:45;4.03;;;3.37;;
9392;SDS011;4736;52.508;13.422;2022-10-16T10:32:57;2.70;;;2.57;;
9392;SDS011;4736;52.508;13.422;2022-10-16T10:36:16;2.37;;;2.27;;
9392;SDS011;4736;52.508;13.422;2022-10-16T10:39:43;2.40;;;2.33;;
9392;SDS011;4736;52.508;13.422;2022-10-16T10:42:51;2.10;;;2.10;;
9392;SDS011;4736;52.508;13.422;2022-10-16T10:46:02;2.20;;;2.10;;
9392;SDS011;4736;52.508;13.422;2022-10-16T10:49:16;2.30;;;2.10;;
9392;SDS011;4736;52.508;13.422;2022-10-16T10:52:33;2.20;;;2.20;;
9392;SDS011;4736;52.508;13.422;2022-10-16T10:55:44;2.73;;;1.83;;
9392;SDS011;4736;52.508;13.422;2022-10-16T10:59:07;2.30;;;2.30;;
9392;SDS011;4736;52.508;13.422;2022-10-16T11:02:23;2.07;;;2.00;;
9392;SDS011;4736;52.508;13.422;2022-10-16T11:05:33;2.00;;;1.90;;
9392;SDS011;4736;52.508;13.422;2022-10-16T11:08:43;2.10;;;2.00;;
9392;SDS011;4736;52.508;13.422;2022-10-16T11:11:51;2.47;;;2.10;;
9392;SDS011;4736;52.508;13.422;2022-10-16T11:14:58;2.00;;;1.90;;
9392;SDS011;4736;52.508;13.422;2022-10-16T11:18:08;2.10;;;2.10;;
9392;SDS011;4736;52.508;13.422;2022-10-16T11:21:19;2.27;;;2.17;;
9392;SDS011;4736;52.508;13.422;2022-10-16T11:24:35;1.73;;;1.70;;
9392;SDS011;4736;52.508;13.422;2022-10-16T11:27:44;2.90;;;2.87;;
9392;SDS011;4736;52.508;13.422;2022-10-16T11:30:51;1.97;;;1.87;;
9392;SDS011;4736;52.508;13.422;2022-10-16T11:34:01;1.97;;;1.87;;
9392;SDS011;4736;52.508;13.422;2022-10-16T11:37:09;3.33;;;1.73;;
9392;SDS011;4736;52.508;13.422;2022-10-16T11:40:19;1.53;;;1.50;;
9392;SDS011;4736;52.508;13.422;2022-10-16T11:43:28;2.63;;;1.60;;
9392;SDS011;4736;52.508;13.422;2022-10-16T11:46:36;2.80;;;2.10;;
9392;SDS011;4736;52.508;13.422;2022-10-16T11:50:03;2.00;;;1.90;;
9392;SDS011;4736;52.508;13.422;2022-10-16T11:53:16;1.60;;;1.60;;
9392;SDS011;4736;52.508;13.422;2022-10-16T11:56:26;2.17;;;1.70;;
9392;SDS011;4736;52.508;13.422;2022-10-16T11:59:32;1.63;;;1.63;;
9392;SDS011;4736;52.508;13.422;2022-10-16T12:02:45;1.70;;;1.70;;
9392;SDS011;4736;52.508;13.422;2022-10-16T12:06:05;1.70;;;1.70;;
9392;SDS011;4736;52.508;13.422;2022-10-16T12:09:20;2.00;;;1.80;;
9392;SDS011;4736;52.508;13.422;2022-10-16T12:12:27;1.77;;;1.63;;
9392;SDS011;4736;52.508;13.422;2022-10-16T12:15:40;1.50;;;1.50;;
9392;SDS011;4736;52.508;13.422;2022-10-16T12:19:08;1.97;;;1.97;;
9392;SDS011;4736;52.508;13.422;2022-10-16T12:22:16;1.97;;;1.87;;
9392;SDS011;4736;52.508;13.422;2022-10-16T12:25:21;1.50;;;1.50;;
9392;SDS011;4736;52.508;13.422;2022-10-16T12:28:29;1.53;;;1.53;;
9392;SDS011;4736;52.508;13.422;2022-10-16T12:31:36;1.57;;;1.57;;
9392;SDS011;4736;52.508;13.422;2022-10-16T12:34:58;1.80;;;1.70;;
9392;SDS011;4736;52.508;13.422;2022-10-16T12:38:06;1.83;;;1.73;;
9392;SDS011;4736;52.508;13.422;2022-10-16T12:41:24;1.50;;;1.50;;
9392;SDS011;4736;52.508;13.422;2022-10-16T12:44:31;1.83;;;1.70;;
9392;SDS011;4736;52.508;13.422;2022-10-16T12:47:37;1.50;;;1.40;;
9392;SDS011;4736;52.508;13.422;2022-10-16T12:50:50;2.57;;;1.50;;
9392;SDS011;4736;52.508;13.422;2022-10-16T12:54:00;1.73;;;1.73;;
9392;SDS011;4736;52.508;13.422;2022-10-16T12:57:09;1.60;;;1.60;;
9392;SDS011;4736;52.508;13.422;2022-10-16T13:00:26;1.73;;;1.70;;
9392;SDS011;4736;52.508;13.422;2022-10-16T13:03:46;1.70;;;1.60;;
9392;SDS011;4736;52.508;13.422;2022-10-16T13:07:19;1.63;;;1.63;;
9392;SDS011;4736;52.508;13.422;2022-10-16T13:10:47;1.80;;;1.80;;
9392;SDS011;4736;52.508;13.422;2022-10-16T13:14:08;1.57;;;1.50;;
9392;SDS011;4736;52.508;13.422;2022-10-16T13:17:26;1.30;;;1.30;;
9392;SDS011;4736;52.508;13.422;2022-10-16T13:20:37;1.80;;;1.77;;
9392;SDS011;4736;52.508;13.422;2022-10-16T13:23:50;1.60;;;1.60;;
9392;SDS011;4736;52.508;13.422;2022-10-16T13:27:05;1.33;;;1.33;;
9392;SDS011;4736;52.508;13.422;2022-10-16T13:30:15;1.43;;;1.43;;
9392;SDS011;4736;52.508;13.422;2022-10-16T13:33:23;1.90;;;1.90;;
9392;SDS011;4736;52.508;13.422;2022-10-16T13:36:34;1.57;;;1.50;;
9392;SDS011;4736;52.508;13.422;2022-10-16T13:39:44;2.87;;;1.70;;
9392;SDS011;4736;52.508;13.422;2022-10-16T13:42:49;1.40;;;1.40;;
9392;SDS011;4736;52.508;13.422;2022-10-16T13:45:56;1.27;;;1.27;;
9392;SDS011;4736;52.508;13.422;2022-10-16T13:49:02;1.30;;;1.30;;
9392;SDS011;4736;52.508;13.422;2022-10-16T13:52:05;1.70;;;1.60;;
9392;SDS011;4736;52.508;13.422;2022-10-16T13:55:19;1.33;;;1.30;;
9392;SDS011;4736;52.508;13.422;2022-10-16T13:58:23;1.40;;;1.40;;
9392;SDS011;4736;52.508;13.422;2022-10-16T14:01:26;1.80;;;1.70;;
9392;SDS011;4736;52.508;13.422;2022-10-16T14:04:33;1.70;;;1.60;;
9392;SDS011;4736;52.508;13.422;2022-10-16T14:07:40;2.00;;;1.77;;
9392;SDS011;4736;52.508;13.422;2022-10-16T14:10:46;1.57;;;1.50;;
9392;SDS011;4736;52.508;13.422;2022-10-16T14:13:52;1.60;;;1.60;;
9392;SDS011;4736;52.508;13.422;2022-10-16T14:16:56;1.40;;;1.40;;
9392;SDS011;4736;52.508;13.422;2022-10-16T14:19:59;1.80;;;1.80;;
9392;SDS011;4736;52.508;13.422;2022-10-16T14:23:18;2.50;;;1.97;;
9392;SDS011;4736;52.508;13.422;2022-10-16T14:26:24;2.50;;;1.60;;
9392;SDS011;4736;52.508;13.422;2022-10-16T14:29:30;1.43;;;1.43;;
9392;SDS011;4736;52.508;13.422;2022-10-16T14:32:33;1.50;;;1.50;;
9392;SDS011;4736;52.508;13.422;2022-10-16T14:35:37;1.70;;;1.70;;
9392;SDS011;4736;52.508;13.422;2022-10-16T14:38:42;1.70;;;1.70;;
9392;SDS011;4736;52.508;13.422;2022-10-16T14:41:51;1.63;;;1.63;;
9392;SDS011;4736;52.508;13.422;2022-10-16T14:44:59;1.70;;;1.70;;
9392;SDS011;4736;52.508;13.422;2022-10-16T14:48:02;1.70;;;1.70;;
9392;SDS011;4736;52.508;13.422;2022-10-16T14:51:08;1.70;;;1.60;;
9392;SDS011;4736;52.508;13.422;2022-10-16T14:54:16;1.90;;;1.80;;
9392;SDS011;4736;52.508;13.422;2022-10-16T14:57:22;1.67;;;1.67;;
9392;SDS011;4736;52.508;13.422;2022-10-16T15:00:27;2.10;;;1.87;;
9392;SDS011;4736;52.508;13.422;2022-10-16T15:03:30;1.80;;;1.70;;
9392;SDS011;4736;52.508;13.422;2022-10-16T15:06:33;1.83;;;1.77;;
9392;SDS011;4736;52.508;13.422;2022-10-16T15:09:36;1.80;;;1.70;;
9392;SDS011;4736;52.508;13.422;2022-10-16T15:12:39;2.47;;;2.37;;
9392;SDS011;4736;52.508;13.422;2022-10-16T15:15:44;1.73;;;1.60;;
9392;SDS011;4736;52.508;13.422;2022-10-16T15:18:47;1.60;;;1.60;;
9392;SDS011;4736;52.508;13.422;2022-10-16T15:21:50;1.70;;;1.60;;
9392;SDS011;4736;52.508;13.422;2022-10-16T15:24:53;1.70;;;1.60;;
9392;SDS011;4736;52.508;13.422;2022-10-16T15:27:56;1.60;;;1.60;;
9392;SDS011;4736;52.508;13.422;2022-10-16T15:31:00;2.00;;;2.00;;
9392;SDS011;4736;52.508;13.422;2022-10-16T15:34:03;1.63;;;1.63;;
9392;SDS011;4736;52.508;13.422;2022-10-16T15:37:08;1.90;;;1.77;;
9392;SDS011;4736;52.508;13.422;2022-10-16T15:40:13;1.80;;;1.80;;
9392;SDS011;4736;52.508;13.422;2022-10-16T15:43:17;1.53;;;1.53;;
9392;SDS011;4736;52.508;13.422;2022-10-16T15:46:22;1.90;;;1.80;;
9392;SDS011;4736;52.508;13.422;2022-10-16T15:49:25;1.87;;;1.77;;
9392;SDS011;4736;52.508;13.422;2022-10-16T15:52:28;2.30;;;2.20;;
9392;SDS011;4736;52.508;13.422;2022-10-16T15:55:33;2.30;;;2.10;;
9392;SDS011;4736;52.508;13.422;2022-10-16T15:58:38;2.10;;;2.00;;
9392;SDS011;4736;52.508;13.422;2022-10-16T16:01:43;2.40;;;2.07;;
9392;SDS011;4736;52.508;13.422;2022-10-16T16:04:45;2.00;;;1.90;;
9392;SDS011;4736;52.508;13.422;2022-10-16T16:07:49;2.07;;;2.07;;
9392;SDS011;4736;52.508;13.422;2022-10-16T16:10:58;3.13;;;1.90;;
9392;SDS011;4736;52.508;13.422;2022-10-16T16:14:02;2.00;;;2.00;;
9392;SDS011;4736;52.508;13.422;2022-10-16T16:17:06;1.90;;;1.90;;
9392;SDS011;4736;52.508;13.422;2022-10-16T16:20:09;1.93;;;1.93;;
9392;SDS011;4736;52.508;13.422;2022-10-16T16:23:13;1.77;;;1.77;;
9392;SDS011;4736;52.508;13.422;2022-10-16T16:26:21;2.00;;;2.00;;
9392;SDS011;4736;52.508;13.422;2022-10-16T16:29:27;2.30;;;2.27;;
9392;SDS011;4736;52.508;13.422;2022-10-16T16:32:31;2.10;;;2.10;;
9392;SDS011;4736;52.508;13.422;2022-10-16T16:35:34;2.40;;;2.40;;
9392;SDS011;4736;52.508;13.422;2022-10-16T16:38:37;2.50;;;2.30;;
9392;SDS011;4736;52.508;13.422;2022-10-16T16:41:40;2.37;;;2.37;;
9392;SDS011;4736;52.508;13.422;2022-10-16T16:44:43;2.37;;;2.37;;
9392;SDS011;4736;52.508;13.422;2022-10-16T16:47:47;2.50;;;2.30;;
9392;SDS011;4736;52.508;13.422;2022-10-16T16:50:50;2.23;;;2.17;;
9392;SDS011;4736;52.508;13.422;2022-10-16T16:53:53;2.83;;;2.73;;
9392;SDS011;4736;52.508;13.422;2022-10-16T16:56:56;2.77;;;2.77;;
9392;SDS011;4736;52.508;13.422;2022-10-16T16:59:59;2.93;;;2.83;;
9392;SDS011;4736;52.508;13.422;2022-10-16T17:03:04;3.40;;;3.00;;
9392;SDS011;4736;52.508;13.422;2022-10-16T17:06:07;3.20;;;3.10;;
9392;SDS011;4736;52.508;13.422;2022-10-16T17:09:11;3.10;;;2.90;;
9392;SDS011;4736;52.508;13.422;2022-10-16T17:12:16;3.50;;;3.20;;
9392;SDS011;4736;52.508;13.422;2022-10-16T17:15:19;3.20;;;3.00;;
9392;SDS011;4736;52.508;13.422;2022-10-16T17:18:23;3.23;;;3.10;;
9392;SDS011;4736;52.508;13.422;2022-10-16T17:21:26;3.50;;;3.30;;
9392;SDS011;4736;52.508;13.422;2022-10-16T17:24:30;3.00;;;2.90;;
9392;SDS011;4736;52.508;13.422;2022-10-16T17:27:33;3.60;;;3.50;;
9392;SDS011;4736;52.508;13.422;2022-10-16T17:30:37;3.43;;;3.37;;
9392;SDS011;4736;52.508;13.422;2022-10-16T17:33:41;3.13;;;3.00;;
9392;SDS011;4736;52.508;13.422;2022-10-16T17:36:45;3.80;;;3.47;;
9392;SDS011;4736;52.508;13.422;2022-10-16T17:39:49;4.97;;;3.80;;
9392;SDS011;4736;52.508;13.422;2022-10-16T17:42:52;3.63;;;3.53;;
9392;SDS011;4736;52.508;13.422;2022-10-16T17:45:55;3.23;;;3.13;;
9392;SDS011;4736;52.508;13.422;2022-10-16T17:48:59;3.63;;;3.53;;
9392;SDS011;4736;52.508;13.422;2022-10-16T17:52:02;3.60;;;3.50;;
9392;SDS011;4736;52.508;13.422;2022-10-16T17:55:05;3.60;;;3.50;;
9392;SDS011;4736;52.508;13.422;2022-10-16T17:58:08;3.77;;;3.67;;
9392;SDS011;4736;52.508;13.422;2022-10-16T18:01:11;4.03;;;3.83;;
9392;SDS011;4736;52.508;13.422;2022-10-16T18:04:16;4.50;;;4.20;;
9392;SDS011;4736;52.508;13.422;2022-10-16T18:07:19;4.10;;;3.80;;
9392;SDS011;4736;52.508;13.422;2022-10-16T18:10:22;3.80;;;3.70;;
9392;SDS011;4736;52.508;13.422;2022-10-16T18:13:25;5.73;;;5.37;;
9392;SDS011;4736;52.508;13.422;2022-10-16T18:16:28;6.07;;;5.67;;
9392;SDS011;4736;52.508;13.422;2022-10-16T18:19:33;7.23;;;6.73;;
9392;SDS011;4736;52.508;13.422;2022-10-16T18:22:36;8.10;;;7.40;;
9392;SDS011;4736;52.508;13.422;2022-10-16T18:25:39;10.63;;;9.70;;
9392;SDS011;4736;52.508;13.422;2022-10-16T18:28:42;12.80;;;11.67;;
9392;SDS011;4736;52.508;13.422;2022-10-16T18:31:45;17.97;;;16.17;;
9392;SDS011;4736;52.508;13.422;2022-10-16T18:34:49;28.07;;;23.30;;
9392;SDS011;4736;52.508;13.422;2022-10-16T18:37:52;25.67;;;22.33;;
9392;SDS011;4736;52.508;13.422;2022-10-16T18:40:59;28.87;;;24.23;;
9392;SDS011;4736;52.508;13.422;2022-10-16T18:44:02;31.43;;;25.67;;
9392;SDS011;4736;52.508;13.422;2022-10-16T18:47:06;40.87;;;31.63;;
9392;SDS011;4736;52.508;13.422;2022-10-16T18:50:10;53.37;;;37.50;;
9392;SDS011;4736;52.508;13.422;2022-10-16T18:53:13;53.20;;;37.83;;
9392;SDS011;4736;52.508;13.422;2022-10-16T18:56:17;49.87;;;35.77;;
9392;SDS011;4736;52.508;13.422;2022-10-16T18:59:21;54.60;;;38.33;;
9392;SDS011;4736;52.508;13.422;2022-10-16T19:02:26;54.30;;;38.53;;
9392;SDS011;4736;52.508;13.422;2022-10-16T19:05:30;52.27;;;37.00;;